sensor_id;sensor_type;location;lat;lon;timestamp;pressure;altitude;pressure_sealevel;temperature;humidity
60920;BME280;59039;52.108;19.942;2024-01-15T00:02:12;98478.96;;;1.22;88.48
60920;BME280;59039;52.108;19.942;2024-01-15T00:04:38;98479.89;;;1.20;88.39
60920;BME280;59039;52.108;19.942;2024-01-15T00:07:03;98482.23;;;1.18;88.26
60920;BME280;59039;52.108;19.942;2024-01-15T00:09:28;98474.19;;;1.14;88.51
60920;BME280;59039;52.108;19.942;2024-01-15T00:11:53;98467.88;;;1.11;88.59
60920;BME280;59039;52.108;19.942;2024-01-15T00:14:19;98465.39;;;1.09;88.73
60920;BME280;59039;52.108;19.942;2024-01-15T00:16:44;98460.77;;;1.07;88.73
60920;BME280;59039;52.108;19.942;2024-01-15T00:19:09;98452.41;;;1.05;88.76
60920;BME280;59039;52.108;19.942;2024-01-15T00:21:35;98451.14;;;1.03;88.77
60920;BME280;59039;52.108;19.942;2024-01-15T00:24:00;98444.74;;;1.01;88.64
60920;BME280;59039;52.108;19.942;2024-01-15T00:26:25;98435.42;;;0.99;88.56
60920;BME280;59039;52.108;19.942;2024-01-15T00:28:51;98431.30;;;0.98;88.58
60920;BME280;59039;52.108;19.942;2024-01-15T00:31:16;98429.49;;;0.96;88.60
60920;BME280;59039;52.108;19.942;2024-01-15T00:33:42;98431.44;;;0.94;88.57
60920;BME280;59039;52.108;19.942;2024-01-15T00:36:07;98422.55;;;0.94;88.48
60920;BME280;59039;52.108;19.942;2024-01-15T00:38:32;98417.98;;;0.93;88.53
60920;BME280;59039;52.108;19.942;2024-01-15T00:40:58;98415.29;;;0.92;88.54
60920;BME280;59039;52.108;19.942;2024-01-15T00:43:23;98417.06;;;0.92;88.48
60920;BME280;59039;52.108;19.942;2024-01-15T00:45:48;98412.13;;;0.91;88.59
60920;BME280;59039;52.108;19.942;2024-01-15T00:48:13;98405.70;;;0.91;88.84
60920;BME280;59039;52.108;19.942;2024-01-15T00:50:38;98400.92;;;0.91;88.59
60920;BME280;59039;52.108;19.942;2024-01-15T00:53:04;98395.63;;;0.90;88.57
60920;BME280;59039;52.108;19.942;2024-01-15T00:55:29;98396.93;;;0.90;88.35
60920;BME280;59039;52.108;19.942;2024-01-15T00:57:54;98399.70;;;0.90;88.51
60920;BME280;59039;52.108;19.942;2024-01-15T01:00:19;98393.15;;;0.90;88.41
60920;BME280;59039;52.108;19.942;2024-01-15T01:02:45;98392.37;;;0.91;88.39
60920;BME280;59039;52.108;19.942;2024-01-15T01:05:10;98387.80;;;0.92;88.32
60920;BME280;59039;52.108;19.942;2024-01-15T01:07:35;98385.27;;;0.94;88.36
60920;BME280;59039;52.108;19.942;2024-01-15T01:10:00;98382.98;;;0.96;88.35
60920;BME280;59039;52.108;19.942;2024-01-15T01:12:26;98380.41;;;0.96;88.37
60920;BME280;59039;52.108;19.942;2024-01-15T01:14:51;98380.81;;;0.96;88.28
60920;BME280;59039;52.108;19.942;2024-01-15T01:17:16;98381.88;;;0.96;88.26
60920;BME280;59039;52.108;19.942;2024-01-15T01:19:41;98376.98;;;0.97;88.16
60920;BME280;59039;52.108;19.942;2024-01-15T01:22:06;98372.16;;;0.97;88.23
60920;BME280;59039;52.108;19.942;2024-01-15T01:24:33;98360.49;;;0.96;88.18
60920;BME280;59039;52.108;19.942;2024-01-15T01:26:58;98360.99;;;0.96;88.29
60920;BME280;59039;52.108;19.942;2024-01-15T01:29:23;98354.58;;;0.96;88.11
60920;BME280;59039;52.108;19.942;2024-01-15T01:31:48;98353.76;;;0.97;88.27
60920;BME280;59039;52.108;19.942;2024-01-15T01:34:15;98352.14;;;0.97;88.25
60920;BME280;59039;52.108;19.942;2024-01-15T01:36:44;98343.79;;;0.97;88.23
60920;BME280;59039;52.108;19.942;2024-01-15T01:39:09;98346.08;;;0.98;88.28
60920;BME280;59039;52.108;19.942;2024-01-15T01:41:35;98344.18;;;0.99;88.35
60920;BME280;59039;52.108;19.942;2024-01-15T01:44:00;98341.95;;;1.00;88.28
60920;BME280;59039;52.108;19.942;2024-01-15T01:46:27;98336.23;;;1.00;88.21
60920;BME280;59039;52.108;19.942;2024-01-15T01:48:52;98332.36;;;1.01;88.18
60920;BME280;59039;52.108;19.942;2024-01-15T01:51:20;98329.30;;;1.01;88.13
60920;BME280;59039;52.108;19.942;2024-01-15T01:53:45;98325.26;;;1.01;87.94
60920;BME280;59039;52.108;19.942;2024-01-15T01:56:11;98321.09;;;1.00;87.80
60920;BME280;59039;52.108;19.942;2024-01-15T01:58:38;98317.89;;;0.98;87.89
60920;BME280;59039;52.108;19.942;2024-01-15T02:01:03;98307.23;;;0.97;87.81
60920;BME280;59039;52.108;19.942;2024-01-15T02:03:30;98306.69;;;0.98;87.90
60920;BME280;59039;52.108;19.942;2024-01-15T02:05:56;98300.88;;;0.99;88.01
60920;BME280;59039;52.108;19.942;2024-01-15T02:08:21;98296.96;;;0.98;88.20
60920;BME280;59039;52.108;19.942;2024-01-15T02:10:47;98295.25;;;0.98;88.73
60920;BME280;59039;52.108;19.942;2024-01-15T02:13:12;98287.16;;;0.96;88.71
60920;BME280;59039;52.108;19.942;2024-01-15T02:15:37;98285.74;;;0.94;88.92
60920;BME280;59039;52.108;19.942;2024-01-15T02:18:04;98279.64;;;0.93;88.69
60920;BME280;59039;52.108;19.942;2024-01-15T02:20:31;98272.27;;;0.92;88.84
60920;BME280;59039;52.108;19.942;2024-01-15T02:25:39;98274.48;;;0.89;89.12
60920;BME280;59039;52.108;19.942;2024-01-15T02:28:05;98265.34;;;0.90;89.08
60920;BME280;59039;52.108;19.942;2024-01-15T02:30:31;98261.70;;;0.90;89.19
60920;BME280;59039;52.108;19.942;2024-01-15T02:32:56;98256.70;;;0.91;89.14
60920;BME280;59039;52.108;19.942;2024-01-15T02:35:21;98256.28;;;0.91;89.01
60920;BME280;59039;52.108;19.942;2024-01-15T02:37:47;98254.08;;;0.92;88.90
60920;BME280;59039;52.108;19.942;2024-01-15T02:40:12;98249.36;;;0.91;89.00
60920;BME280;59039;52.108;19.942;2024-01-15T02:42:37;98248.67;;;0.91;88.94
60920;BME280;59039;52.108;19.942;2024-01-15T02:45:03;98238.70;;;0.91;89.04
60920;BME280;59039;52.108;19.942;2024-01-15T02:47:28;98235.66;;;0.91;88.91
60920;BME280;59039;52.108;19.942;2024-01-15T02:49:54;98229.22;;;0.91;88.97
60920;BME280;59039;52.108;19.942;2024-01-15T02:52:19;98225.54;;;0.90;88.91
60920;BME280;59039;52.108;19.942;2024-01-15T02:54:44;98222.52;;;0.90;89.01
60920;BME280;59039;52.108;19.942;2024-01-15T02:57:09;98215.89;;;0.91;89.04
60920;BME280;59039;52.108;19.942;2024-01-15T02:59:35;98216.76;;;0.91;88.91
60920;BME280;59039;52.108;19.942;2024-01-15T03:02:00;98214.73;;;0.91;88.96
60920;BME280;59039;52.108;19.942;2024-01-15T03:04:25;98211.59;;;0.92;89.00
60920;BME280;59039;52.108;19.942;2024-01-15T03:06:50;98204.98;;;0.93;88.75
60920;BME280;59039;52.108;19.942;2024-01-15T03:09:15;98200.22;;;0.92;88.59
60920;BME280;59039;52.108;19.942;2024-01-15T03:11:41;98194.17;;;0.92;88.45
60920;BME280;59039;52.108;19.942;2024-01-15T03:14:06;98189.59;;;0.91;88.54
60920;BME280;59039;52.108;19.942;2024-01-15T03:16:31;98193.95;;;0.91;88.50
60920;BME280;59039;52.108;19.942;2024-01-15T03:18:56;98189.39;;;0.90;88.61
60920;BME280;59039;52.108;19.942;2024-01-15T03:21:21;98184.85;;;0.89;88.82
60920;BME280;59039;52.108;19.942;2024-01-15T03:23:47;98177.45;;;0.88;88.79
60920;BME280;59039;52.108;19.942;2024-01-15T03:26:12;98174.09;;;0.88;89.01
60920;BME280;59039;52.108;19.942;2024-01-15T03:28:37;98175.24;;;0.89;88.92
60920;BME280;59039;52.108;19.942;2024-01-15T03:31:03;98173.23;;;0.89;88.71
60920;BME280;59039;52.108;19.942;2024-01-15T03:33:28;98175.41;;;0.89;88.63
60920;BME280;59039;52.108;19.942;2024-01-15T03:35:53;98169.78;;;0.88;88.56
60920;BME280;59039;52.108;19.942;2024-01-15T03:38:18;98167.28;;;0.88;88.74
60920;BME280;59039;52.108;19.942;2024-01-15T03:40:43;98162.88;;;0.89;88.69
60920;BME280;59039;52.108;19.942;2024-01-15T03:43:09;98164.23;;;0.90;88.78
60920;BME280;59039;52.108;19.942;2024-01-15T03:45:34;98158.54;;;0.90;88.65
60920;BME280;59039;52.108;19.942;2024-01-15T03:47:59;98158.63;;;0.91;88.71
60920;BME280;59039;52.108;19.942;2024-01-15T03:50:24;98153.38;;;0.92;88.56
60920;BME280;59039;52.108;19.942;2024-01-15T03:52:50;98155.49;;;0.92;88.58
60920;BME280;59039;52.108;19.942;2024-01-15T03:55:15;98154.12;;;0.91;88.49
60920;BME280;59039;52.108;19.942;2024-01-15T03:57:40;98151.59;;;0.92;88.37
60920;BME280;59039;52.108;19.942;2024-01-15T04:00:07;98149.84;;;0.91;88.57
60920;BME280;59039;52.108;19.942;2024-01-15T04:02:32;98147.23;;;0.91;88.45
60920;BME280;59039;52.108;19.942;2024-01-15T04:04:57;98141.20;;;0.90;88.41
60920;BME280;59039;52.108;19.942;2024-01-15T04:07:23;98132.16;;;0.90;88.39
60920;BME280;59039;52.108;19.942;2024-01-15T04:09:48;98134.59;;;0.89;88.36
60920;BME280;59039;52.108;19.942;2024-01-15T04:12:13;98130.91;;;0.88;88.46
60920;BME280;59039;52.108;19.942;2024-01-15T04:14:38;98128.66;;;0.87;88.38
60920;BME280;59039;52.108;19.942;2024-01-15T04:17:03;98124.80;;;0.87;88.35
60920;BME280;59039;52.108;19.942;2024-01-15T04:19:29;98122.61;;;0.87;88.25
60920;BME280;59039;52.108;19.942;2024-01-15T04:21:54;98121.09;;;0.88;88.26
60920;BME280;59039;52.108;19.942;2024-01-15T04:24:19;98121.04;;;0.89;88.16
60920;BME280;59039;52.108;19.942;2024-01-15T04:26:45;98118.11;;;0.91;88.18
60920;BME280;59039;52.108;19.942;2024-01-15T04:29:10;98108.83;;;0.91;88.15
60920;BME280;59039;52.108;19.942;2024-01-15T04:31:35;98109.10;;;0.92;87.92
60920;BME280;59039;52.108;19.942;2024-01-15T04:34:01;98108.96;;;0.92;87.75
60920;BME280;59039;52.108;19.942;2024-01-15T04:36:26;98104.00;;;0.92;87.83
60920;BME280;59039;52.108;19.942;2024-01-15T04:38:51;98103.58;;;0.90;87.84
60920;BME280;59039;52.108;19.942;2024-01-15T04:41:16;98100.84;;;0.91;87.80
60920;BME280;59039;52.108;19.942;2024-01-15T04:43:41;98098.17;;;0.91;87.72
60920;BME280;59039;52.108;19.942;2024-01-15T04:46:07;98093.98;;;0.92;87.86
60920;BME280;59039;52.108;19.942;2024-01-15T04:48:33;98093.27;;;0.92;87.90
60920;BME280;59039;52.108;19.942;2024-01-15T04:50:58;98091.81;;;0.92;87.97
60920;BME280;59039;52.108;19.942;2024-01-15T04:53:23;98091.19;;;0.93;87.82
60920;BME280;59039;52.108;19.942;2024-01-15T04:55:48;98087.42;;;0.93;87.80
60920;BME280;59039;52.108;19.942;2024-01-15T04:58:14;98086.85;;;0.94;87.80
60920;BME280;59039;52.108;19.942;2024-01-15T05:00:39;98079.05;;;0.93;87.63
60920;BME280;59039;52.108;19.942;2024-01-15T05:03:04;98083.86;;;0.93;87.65
60920;BME280;59039;52.108;19.942;2024-01-15T05:05:29;98082.10;;;0.95;87.86
60920;BME280;59039;52.108;19.942;2024-01-15T05:07:55;98078.96;;;0.94;87.77
60920;BME280;59039;52.108;19.942;2024-01-15T05:10:20;98084.58;;;0.93;87.72
60920;BME280;59039;52.108;19.942;2024-01-15T05:12:45;98083.86;;;0.93;87.74
60920;BME280;59039;52.108;19.942;2024-01-15T05:15:10;98076.95;;;0.93;87.58
60920;BME280;59039;52.108;19.942;2024-01-15T05:17:35;98074.95;;;0.91;87.58
60920;BME280;59039;52.108;19.942;2024-01-15T05:20:01;98072.84;;;0.91;87.64
60920;BME280;59039;52.108;19.942;2024-01-15T05:22:26;98069.86;;;0.91;87.62
60920;BME280;59039;52.108;19.942;2024-01-15T05:24:51;98062.90;;;0.89;87.88
60920;BME280;59039;52.108;19.942;2024-01-15T05:27:16;98055.85;;;0.88;88.20
60920;BME280;59039;52.108;19.942;2024-01-15T05:29:42;98050.13;;;0.86;88.55
60920;BME280;59039;52.108;19.942;2024-01-15T05:32:07;98056.95;;;0.86;88.78
60920;BME280;59039;52.108;19.942;2024-01-15T05:34:32;98058.91;;;0.86;88.53
60920;BME280;59039;52.108;19.942;2024-01-15T05:36:57;98054.77;;;0.82;88.42
60920;BME280;59039;52.108;19.942;2024-01-15T05:39:22;98052.09;;;0.79;88.11
60920;BME280;59039;52.108;19.942;2024-01-15T05:41:48;98054.27;;;0.77;88.26
60920;BME280;59039;52.108;19.942;2024-01-15T05:44:13;98052.32;;;0.75;88.20
60920;BME280;59039;52.108;19.942;2024-01-15T05:46:38;98052.11;;;0.74;88.14
60920;BME280;59039;52.108;19.942;2024-01-15T05:49:03;98042.84;;;0.72;88.23
60920;BME280;59039;52.108;19.942;2024-01-15T05:51:29;98038.02;;;0.70;88.08
60920;BME280;59039;52.108;19.942;2024-01-15T05:53:54;98034.16;;;0.67;87.94
60920;BME280;59039;52.108;19.942;2024-01-15T05:56:19;98031.34;;;0.65;87.85
60920;BME280;59039;52.108;19.942;2024-01-15T05:58:44;98034.35;;;0.63;87.79
60920;BME280;59039;52.108;19.942;2024-01-15T06:01:09;98034.92;;;0.61;87.79
60920;BME280;59039;52.108;19.942;2024-01-15T06:03:35;98033.70;;;0.59;87.76
60920;BME280;59039;52.108;19.942;2024-01-15T06:06:00;98027.40;;;0.58;87.86
60920;BME280;59039;52.108;19.942;2024-01-15T06:08:25;98027.73;;;0.57;87.70
60920;BME280;59039;52.108;19.942;2024-01-15T06:10:50;98024.34;;;0.55;87.91
60920;BME280;59039;52.108;19.942;2024-01-15T06:13:15;98019.20;;;0.53;87.70
60920;BME280;59039;52.108;19.942;2024-01-15T06:15:41;98018.52;;;0.51;87.70
60920;BME280;59039;52.108;19.942;2024-01-15T06:18:06;98016.08;;;0.50;87.76
60920;BME280;59039;52.108;19.942;2024-01-15T06:20:31;98015.77;;;0.50;87.74
60920;BME280;59039;52.108;19.942;2024-01-15T06:22:56;98018.69;;;0.49;88.08
60920;BME280;59039;52.108;19.942;2024-01-15T06:25:22;98019.48;;;0.48;88.19
60920;BME280;59039;52.108;19.942;2024-01-15T06:27:47;98019.52;;;0.46;88.53
60920;BME280;59039;52.108;19.942;2024-01-15T06:30:12;98015.46;;;0.44;88.41
60920;BME280;59039;52.108;19.942;2024-01-15T06:32:38;98016.30;;;0.42;88.99
60920;BME280;59039;52.108;19.942;2024-01-15T06:35:03;98010.30;;;0.40;88.86
60920;BME280;59039;52.108;19.942;2024-01-15T06:37:29;98011.02;;;0.36;89.35
60920;BME280;59039;52.108;19.942;2024-01-15T06:39:54;98012.05;;;0.35;88.73
60920;BME280;59039;52.108;19.942;2024-01-15T06:42:19;98009.98;;;0.32;89.61
60920;BME280;59039;52.108;19.942;2024-01-15T06:44:44;98003.36;;;0.29;90.36
60920;BME280;59039;52.108;19.942;2024-01-15T06:47:09;98013.23;;;0.28;90.44
60920;BME280;59039;52.108;19.942;2024-01-15T06:49:35;98008.52;;;0.27;90.50
60920;BME280;59039;52.108;19.942;2024-01-15T06:52:00;98011.35;;;0.27;90.21
60920;BME280;59039;52.108;19.942;2024-01-15T06:54:25;98021.64;;;0.28;89.80
60920;BME280;59039;52.108;19.942;2024-01-15T06:56:50;98027.02;;;0.27;90.03
60920;BME280;59039;52.108;19.942;2024-01-15T06:59:15;98028.11;;;0.29;90.61
60920;BME280;59039;52.108;19.942;2024-01-15T07:01:41;98031.88;;;0.28;90.75
60920;BME280;59039;52.108;19.942;2024-01-15T07:04:06;98034.41;;;0.28;90.65
60920;BME280;59039;52.108;19.942;2024-01-15T07:06:31;98038.91;;;0.28;90.18
60920;BME280;59039;52.108;19.942;2024-01-15T07:08:56;98040.30;;;0.28;90.65
60920;BME280;59039;52.108;19.942;2024-01-15T07:11:22;98040.91;;;0.29;90.74
60920;BME280;59039;52.108;19.942;2024-01-15T07:13:47;98047.28;;;0.30;90.77
60920;BME280;59039;52.108;19.942;2024-01-15T07:16:12;98046.80;;;0.31;91.13
60920;BME280;59039;52.108;19.942;2024-01-15T07:18:37;98050.20;;;0.31;91.22
60920;BME280;59039;52.108;19.942;2024-01-15T07:21:03;98052.97;;;0.30;90.70
60920;BME280;59039;52.108;19.942;2024-01-15T07:23:28;98054.77;;;0.29;90.57
60920;BME280;59039;52.108;19.942;2024-01-15T07:25:53;98051.42;;;0.29;90.63
60920;BME280;59039;52.108;19.942;2024-01-15T07:28:19;98058.96;;;0.28;90.48
60920;BME280;59039;52.108;19.942;2024-01-15T07:30:44;98060.31;;;0.27;90.61
60920;BME280;59039;52.108;19.942;2024-01-15T07:33:09;98065.84;;;0.26;91.11
60920;BME280;59039;52.108;19.942;2024-01-15T07:35:34;98062.64;;;0.26;90.98
60920;BME280;59039;52.108;19.942;2024-01-15T07:38:00;98064.14;;;0.25;91.29
60920;BME280;59039;52.108;19.942;2024-01-15T07:40:25;98066.46;;;0.25;90.83
60920;BME280;59039;52.108;19.942;2024-01-15T07:42:51;98065.91;;;0.25;90.56
60920;BME280;59039;52.108;19.942;2024-01-15T07:45:16;98068.28;;;0.26;90.66
60920;BME280;59039;52.108;19.942;2024-01-15T07:47:41;98067.39;;;0.26;90.92
60920;BME280;59039;52.108;19.942;2024-01-15T07:50:07;98071.30;;;0.26;90.72
60920;BME280;59039;52.108;19.942;2024-01-15T07:52:32;98072.16;;;0.27;90.91
60920;BME280;59039;52.108;19.942;2024-01-15T07:54:57;98073.45;;;0.26;91.39
60920;BME280;59039;52.108;19.942;2024-01-15T07:57:23;98069.82;;;0.27;91.18
60920;BME280;59039;52.108;19.942;2024-01-15T07:59:48;98070.91;;;0.28;91.37
60920;BME280;59039;52.108;19.942;2024-01-15T08:02:14;98071.63;;;0.30;90.99
60920;BME280;59039;52.108;19.942;2024-01-15T08:04:39;98074.19;;;0.31;91.09
60920;BME280;59039;52.108;19.942;2024-01-15T08:07:04;98071.05;;;0.32;90.87
60920;BME280;59039;52.108;19.942;2024-01-15T08:09:30;98071.23;;;0.34;90.66
60920;BME280;59039;52.108;19.942;2024-01-15T08:11:55;98073.34;;;0.36;90.51
60920;BME280;59039;52.108;19.942;2024-01-15T08:14:20;98077.82;;;0.38;90.43
60920;BME280;59039;52.108;19.942;2024-01-15T08:16:45;98074.52;;;0.41;90.29
60920;BME280;59039;52.108;19.942;2024-01-15T08:19:11;98072.43;;;0.44;90.50
60920;BME280;59039;52.108;19.942;2024-01-15T08:21:36;98075.73;;;0.49;90.48
60920;BME280;59039;52.108;19.942;2024-01-15T08:24:02;98077.20;;;0.52;90.37
60920;BME280;59039;52.108;19.942;2024-01-15T08:26:28;98076.19;;;0.55;90.21
60920;BME280;59039;52.108;19.942;2024-01-15T08:28:53;98079.89;;;0.59;90.13
60920;BME280;59039;52.108;19.942;2024-01-15T08:31:18;98081.13;;;0.61;89.57
60920;BME280;59039;52.108;19.942;2024-01-15T08:33:44;98078.05;;;0.63;89.46
60920;BME280;59039;52.108;19.942;2024-01-15T08:36:09;98076.98;;;0.65;89.53
60920;BME280;59039;52.108;19.942;2024-01-15T08:38:35;98077.46;;;0.67;89.20
60920;BME280;59039;52.108;19.942;2024-01-15T08:41:00;98072.14;;;0.69;88.51
60920;BME280;59039;52.108;19.942;2024-01-15T08:43:26;98072.36;;;0.70;88.38
60920;BME280;59039;52.108;19.942;2024-01-15T08:45:51;98071.27;;;0.72;88.38
60920;BME280;59039;52.108;19.942;2024-01-15T08:48:16;98077.32;;;0.74;87.97
60920;BME280;59039;52.108;19.942;2024-01-15T08:50:42;98075.85;;;0.75;87.03
60920;BME280;59039;52.108;19.942;2024-01-15T08:53:07;98080.61;;;0.77;87.40
60920;BME280;59039;52.108;19.942;2024-01-15T08:55:32;98077.58;;;0.79;87.46
60920;BME280;59039;52.108;19.942;2024-01-15T08:57:57;98075.38;;;0.81;87.61
60920;BME280;59039;52.108;19.942;2024-01-15T09:00:23;98077.81;;;0.84;86.88
60920;BME280;59039;52.108;19.942;2024-01-15T09:02:48;98074.84;;;0.85;86.42
60920;BME280;59039;52.108;19.942;2024-01-15T09:05:13;98073.78;;;0.87;87.02
60920;BME280;59039;52.108;19.942;2024-01-15T09:07:38;98075.60;;;0.89;86.89
60920;BME280;59039;52.108;19.942;2024-01-15T09:10:04;98071.59;;;0.89;86.31
60920;BME280;59039;52.108;19.942;2024-01-15T09:12:29;98076.62;;;0.91;86.46
60920;BME280;59039;52.108;19.942;2024-01-15T09:14:54;98073.17;;;0.93;85.99
60920;BME280;59039;52.108;19.942;2024-01-15T09:17:20;98072.84;;;0.95;85.85
60920;BME280;59039;52.108;19.942;2024-01-15T09:19:46;98077.22;;;0.97;85.91
60920;BME280;59039;52.108;19.942;2024-01-15T09:22:12;98076.16;;;0.99;85.88
60920;BME280;59039;52.108;19.942;2024-01-15T09:24:40;98084.20;;;1.00;85.13
60920;BME280;59039;52.108;19.942;2024-01-15T09:27:05;98077.95;;;1.02;85.33
60920;BME280;59039;52.108;19.942;2024-01-15T09:29:31;98082.86;;;1.03;85.20
60920;BME280;59039;52.108;19.942;2024-01-15T09:31:56;98075.97;;;1.04;85.58
60920;BME280;59039;52.108;19.942;2024-01-15T09:34:21;98070.56;;;1.07;85.84
60920;BME280;59039;52.108;19.942;2024-01-15T09:36:46;98069.30;;;1.07;85.05
60920;BME280;59039;52.108;19.942;2024-01-15T09:39:11;98066.92;;;1.08;85.20
60920;BME280;59039;52.108;19.942;2024-01-15T09:41:37;98068.55;;;1.08;84.99
60920;BME280;59039;52.108;19.942;2024-01-15T09:44:03;98072.27;;;1.08;85.39
60920;BME280;59039;52.108;19.942;2024-01-15T09:46:28;98070.51;;;1.08;85.62
60920;BME280;59039;52.108;19.942;2024-01-15T09:48:54;98070.84;;;1.08;85.58
60920;BME280;59039;52.108;19.942;2024-01-15T09:51:20;98071.77;;;1.06;85.82
60920;BME280;59039;52.108;19.942;2024-01-15T09:53:46;98074.55;;;1.04;85.68
60920;BME280;59039;52.108;19.942;2024-01-15T09:56:12;98074.17;;;1.03;85.71
60920;BME280;59039;52.108;19.942;2024-01-15T09:58:38;98068.71;;;1.02;86.12
60920;BME280;59039;52.108;19.942;2024-01-15T10:01:04;98067.98;;;1.02;86.21
60920;BME280;59039;52.108;19.942;2024-01-15T10:03:29;98054.60;;;1.02;86.49
60920;BME280;59039;52.108;19.942;2024-01-15T10:05:55;98049.70;;;1.03;86.50
60920;BME280;59039;52.108;19.942;2024-01-15T10:08:22;98055.36;;;1.05;86.41
60920;BME280;59039;52.108;19.942;2024-01-15T10:10:48;98057.34;;;1.07;86.04
60920;BME280;59039;52.108;19.942;2024-01-15T10:13:14;98057.92;;;1.10;86.05
60920;BME280;59039;52.108;19.942;2024-01-15T10:15:40;98056.45;;;1.14;86.17
60920;BME280;59039;52.108;19.942;2024-01-15T10:18:05;98059.61;;;1.18;85.57
60920;BME280;59039;52.108;19.942;2024-01-15T10:20:34;98057.41;;;1.22;85.74
60920;BME280;59039;52.108;19.942;2024-01-15T10:22:59;98053.88;;;1.26;85.42
60920;BME280;59039;52.108;19.942;2024-01-15T10:25:24;98053.64;;;1.28;85.22
60920;BME280;59039;52.108;19.942;2024-01-15T10:28:02;98048.70;;;1.31;85.32
60920;BME280;59039;52.108;19.942;2024-01-15T10:30:28;98048.73;;;1.34;84.92
60920;BME280;59039;52.108;19.942;2024-01-15T10:33:00;98042.31;;;1.36;84.83
60920;BME280;59039;52.108;19.942;2024-01-15T10:35:27;98042.69;;;1.39;84.16
60920;BME280;59039;52.108;19.942;2024-01-15T10:37:52;98046.55;;;1.42;83.67
60920;BME280;59039;52.108;19.942;2024-01-15T10:40:19;98048.00;;;1.45;84.50
60920;BME280;59039;52.108;19.942;2024-01-15T10:42:44;98050.02;;;1.48;84.53
60920;BME280;59039;52.108;19.942;2024-01-15T10:45:09;98047.05;;;1.50;83.53
60920;BME280;59039;52.108;19.942;2024-01-15T10:47:35;98050.54;;;1.50;83.01
60920;BME280;59039;52.108;19.942;2024-01-15T10:50:01;98048.51;;;1.51;83.60
60920;BME280;59039;52.108;19.942;2024-01-15T10:52:27;98033.28;;;1.51;84.17
60920;BME280;59039;52.108;19.942;2024-01-15T10:54:53;98032.04;;;1.51;84.36
60920;BME280;59039;52.108;19.942;2024-01-15T10:57:21;98030.09;;;1.51;83.79
60920;BME280;59039;52.108;19.942;2024-01-15T10:59:46;98035.17;;;1.50;84.33
60920;BME280;59039;52.108;19.942;2024-01-15T11:02:13;98032.22;;;1.50;84.35
60920;BME280;59039;52.108;19.942;2024-01-15T11:04:39;98036.17;;;1.49;84.09
60920;BME280;59039;52.108;19.942;2024-01-15T11:07:05;98040.21;;;1.50;83.74
60920;BME280;59039;52.108;19.942;2024-01-15T11:09:30;98037.34;;;1.48;83.96
60920;BME280;59039;52.108;19.942;2024-01-15T11:12:13;98030.70;;;1.47;84.36
60920;BME280;59039;52.108;19.942;2024-01-15T11:14:45;98037.40;;;1.44;84.01
60920;BME280;59039;52.108;19.942;2024-01-15T11:17:11;98037.20;;;1.41;84.48
60920;BME280;59039;52.108;19.942;2024-01-15T11:24:56;98035.41;;;1.29;84.61
60920;BME280;59039;52.108;19.942;2024-01-15T11:27:41;98030.65;;;1.24;84.52
60920;BME280;59039;52.108;19.942;2024-01-15T11:30:11;98022.70;;;1.20;84.43
60920;BME280;59039;52.108;19.942;2024-01-15T11:32:37;98011.79;;;1.15;84.23
60920;BME280;59039;52.108;19.942;2024-01-15T11:35:03;98012.36;;;1.11;84.31
60920;BME280;59039;52.108;19.942;2024-01-15T11:40:18;98005.33;;;1.07;84.18
60920;BME280;59039;52.108;19.942;2024-01-15T11:42:44;98000.94;;;1.06;83.91
60920;BME280;59039;52.108;19.942;2024-01-15T11:45:10;98003.64;;;1.06;83.70
60920;BME280;59039;52.108;19.942;2024-01-15T11:48:11;97998.80;;;1.06;83.84
60920;BME280;59039;52.108;19.942;2024-01-15T11:50:40;97995.33;;;1.07;83.97
60920;BME280;59039;52.108;19.942;2024-01-15T11:55:58;97999.34;;;1.08;83.43
60920;BME280;59039;52.108;19.942;2024-01-15T11:58:23;97996.23;;;1.07;83.21
60920;BME280;59039;52.108;19.942;2024-01-15T12:00:50;97992.41;;;1.06;82.95
60920;BME280;59039;52.108;19.942;2024-01-15T12:03:16;97996.27;;;1.04;82.04
60920;BME280;59039;52.108;19.942;2024-01-15T12:05:42;97997.05;;;1.06;82.92
60920;BME280;59039;52.108;19.942;2024-01-15T12:08:07;98011.35;;;1.07;82.77
60920;BME280;59039;52.108;19.942;2024-01-15T12:10:33;98014.73;;;1.09;82.88
60920;BME280;59039;52.108;19.942;2024-01-15T12:13:00;98012.64;;;1.10;83.88
60920;BME280;59039;52.108;19.942;2024-01-15T12:15:31;98011.44;;;1.10;84.30
60920;BME280;59039;52.108;19.942;2024-01-15T12:17:58;98010.61;;;1.09;84.32
60920;BME280;59039;52.108;19.942;2024-01-15T12:20:24;98009.04;;;1.07;84.31
60920;BME280;59039;52.108;19.942;2024-01-15T12:22:50;98009.48;;;1.04;84.48
60920;BME280;59039;52.108;19.942;2024-01-15T12:25:15;98007.76;;;1.02;84.54
60920;BME280;59039;52.108;19.942;2024-01-15T12:27:41;98014.76;;;1.00;84.16
60920;BME280;59039;52.108;19.942;2024-01-15T12:30:06;98016.84;;;0.97;83.81
60920;BME280;59039;52.108;19.942;2024-01-15T12:32:32;98013.95;;;0.93;83.45
60920;BME280;59039;52.108;19.942;2024-01-15T12:34:57;98016.46;;;0.91;83.34
60920;BME280;59039;52.108;19.942;2024-01-15T12:37:23;98008.88;;;0.91;83.36
60920;BME280;59039;52.108;19.942;2024-01-15T12:39:49;98012.52;;;0.92;83.34
60920;BME280;59039;52.108;19.942;2024-01-15T12:42:14;98009.79;;;0.94;83.44
60920;BME280;59039;52.108;19.942;2024-01-15T12:44:39;98012.89;;;0.97;83.57
60920;BME280;59039;52.108;19.942;2024-01-15T12:47:06;98010.94;;;0.98;83.45
60920;BME280;59039;52.108;19.942;2024-01-15T12:49:31;98016.09;;;1.00;83.29
60920;BME280;59039;52.108;19.942;2024-01-15T12:51:57;98014.85;;;1.02;82.98
60920;BME280;59039;52.108;19.942;2024-01-15T12:54:23;98013.52;;;1.03;83.16
60920;BME280;59039;52.108;19.942;2024-01-15T12:56:48;98011.57;;;1.05;83.48
60920;BME280;59039;52.108;19.942;2024-01-15T12:59:14;98008.31;;;1.05;83.14
60920;BME280;59039;52.108;19.942;2024-01-15T13:01:39;98013.48;;;1.07;83.28
60920;BME280;59039;52.108;19.942;2024-01-15T13:04:04;98014.16;;;1.08;82.93
60920;BME280;59039;52.108;19.942;2024-01-15T13:06:29;98011.31;;;1.07;82.83